Pilot Magazine UKGA

About You

Log In Register UKGA membership

Flight planning

Flight planning New flightplan NOTAM map LARS map & NOTAMs Danger area, mil. & TRA activations Weather map GPS route download Find waypoints Your waypoints New waypoint

Forums

Forums Currently discussing "Re-validations"

Other items

Articles Events Links News Surveys Tips Other users Feedback UKGA membership About UKGA

METARs

UK

EGAA 301250Z 35013KT 9999 BKN031 OVC036 08/03 Q1040
EGAC 301250Z AUTO 01015KT 9999 FEW049/// 10/02 Q1039
EGAE 291920Z 01007KT 9999 FEW026 SCT037 06/00 Q1048
EGBB 301250Z 36009KT 340V040 9999 VCSH SCT027 BKN040 07/04 Q1035
EGBJ 301250Z 03009KT 9999 SCT020 SCT030 09/04 Q1035
EGCC 301250Z AUTO 02011KT 9999 BKN039 08/M00 Q1036
EGCK 301250Z AUTO 03015KT 9999 FEW028/// 11/03 Q1037
EGCN 301250Z 03013KT 9999 FEW030 SCT035 10/02 Q1036
EGDM 301150Z AUTO 01013KT 9999 BKN025/// BKN050/// 08/02 Q1033
EGDR 301250Z 03014KT 9999 FEW025 SCT050 09/01 Q1034 NOSIG RMK BLU BLU
EGDY 301250Z 01013KT 9999 BKN032 09/02 Q1033 NOSIG RMK BLU BLU
EGEC 300820Z 35013KT 310V010 9999 FEW033 07/05 Q1041
EGFF 301250Z AUTO 05011KT 020V080 9999 BKN034 BKN048 10/02 Q1034
EGGD 301250Z AUTO 02011KT 9999 BKN023 OVC037 07/02 Q1034
EGGP 301220Z 36008KT 9999 FEW030 SCT034 BKN040 09/02 Q1037
EGGW 301250Z AUTO 02014G24KT 9999 BKN021 BKN032 08/03 Q1032
EGHC 301250Z 03020KT 9999 FEW019 08/02 Q1034
EGHE 300920Z 05019KT 9999 FEW035 07/00 Q1037
EGHH 301250Z 03013KT 9999 BKN032 BKN049 09/02 Q1033
EGHI 301220Z 01012KT 340V040 9999 SCT026 08/02 Q1034 
EGHQ 301250Z 02013KT 350V050 9999 FEW045 09/01 Q1035
EGJA 301120Z 04015KT 9999 FEW020 SCT025 07/01 Q1033
EGJB 301250Z 04015KT 9999 FEW025 07/00 Q1032
EGJJ 301250Z 03016G27KT 360V070 9999 FEW028 BKN031 07/M01 Q1031
EGKA 301250Z 36015KT 9999 FEW030 09/03 Q1032
EGKB 301250Z 01007KT 9999 SCT015 SCT035 06/02 Q1032 
EGKK 301250Z 02009KT 9999 SCT020 BKN027 08/02 Q1032
EGLC 301250Z AUTO VRB07KT 9999 SCT028 BKN032 BKN040 09/02 Q1033
EGLF 301250Z 03008KT 360V060 9999 SCT027 SCT032 06/02 Q1033 REUP
EGLL 301250Z AUTO 02008KT 330V060 9999 SCT024 BKN030 BKN036 08/02 Q1033
EGMC 301250Z 03008KT 9999 BKN031 07/02 Q1032
EGMD 301250Z AUTO /////KT 9999 BKN035/// BKN047/// ///// Q1032
EGNH 301250Z 02011KT 9999 FEW030 BKN044 09/01 Q1037
EGNJ 301250Z 01018KT 9999 SCT029 BKN040 10/03 Q1035
EGNM 301250Z 02014KT 340V060 9999 SCT035 09/01 Q1035
EGNR 301250Z 34009KT 9999 FEW032 BKN044 09/03 Q1037
EGNS 301250Z 35013KT 320V030 9999 FEW030 SCT040 11/01 Q1038 NOSIG
EGNT 301250Z AUTO 01018KT 340V050 9999 BKN038/// 10/M00 Q1036
EGNV 301250Z 02019KT 9999 FEW036 SCT040 09/01 Q1036
EGNX 301250Z 04008KT 9999 VCSH BKN021 07/03 Q1035
EGOM 301150Z AUTO 01018KT 9999 FEW037/// 08/M00 Q1036
EGOP 301150Z AUTO 03014KT 9999 // OVC050/// 10/02 Q1036
EGOS 301250Z 36008KT 9999 SCT028 BKN045 08/02 Q1036 RMK BLU
EGOV 301150Z AUTO 02016KT 9999 FEW025/// BKN050/// 10/02 Q1038
EGPA 301250Z 34010KT 9999 FEW015 SCT030 09/04 Q1037
EGPB 301250Z 30010KT 220V360 9999 FEW018 SCT032 09/04 Q1036
EGPC 301250Z 33014KT 9999 VCSH FEW020 SCT032 08/05 Q1038
EGPD 301250Z 34016KT 9999 SCT023 10/04 Q1037
EGPE 301250Z AUTO 31006KT 9999 SCT027/// SCT035/// BKN042/// 08/05 Q1039
EGPF 301250Z AUTO 01005KT 310V060 9999 OVC043 11/02 Q1039
EGPH 301250Z 02005KT 340V060 9999 SCT038 11/03 Q1038
EGPI 301150Z AUTO 34017KT 320V020 9999 BKN034/// 09/04 Q1040
EGPK 301250Z 27010KT 9999 FEW026 SCT040 10/04 Q1039
EGPL 301250Z AUTO 34014KT 9999 OVC030/// 08/03 Q1042
EGPM 301250Z 30008KT 9999 FEW030 09/03 Q1036 NOSIG
EGPN 301250Z 34009KT 290V030 9999 SCT048 10/03 Q1038
EGPO 301250Z AUTO 32016KT 9999 FEW022/// SCT026/// OVC030/// 08/03 Q1041
EGPU 301150Z AUTO VRB16KT 9999 BKN039/// 08/04 Q1042
EGQK 301250Z 34013KT 9999 -RA FEW025 SCT040 08/04 Q1039 BLU
EGQL 301250Z 03008KT 9999 SCT037 BKN050 11/03 Q1037 RMK BLU
EGQM 301250Z AUTO 35015G25KT 9999 OVC050/// 09/02 Q1037
EGQS 301250Z 32008KT 9999 7000S FEW018 SCT022 BKN032 08/06 Q1038 TEMPO 4000 -SHRA RMK WHT TEMPO GRN
EGSC 301250Z 04015KT 9999 SCT030 BKN042 09/02 Q1033
EGSH 301250Z 01010KT 330V050 9999 FEW020 SCT028 09/02 Q1033
EGSS 301250Z AUTO 36008KT 9999 -RA FEW018 BKN026 BKN034 07/05 Q1033
EGTC 301250Z 01012KT 9999 VCSH FEW021 SCT023 07/05 Q1033
EGTE 301250Z 36012KT 9999 SCT035 09/02 Q1034
EGTK 301220Z 01013KT 9999 FEW025 BKN042 08/03 Q1034
EGUB 301250Z 02013KT 9999 FEW024 BKN030 08/02 Q1033 TEMPO SCT024 RMK BLU TEMPO WHT
EGUL 301256Z 02009G16KT 9999 SCT035 BKN045 09/02 A3050 RMK AO2A RAE04DZB04E08DZB42E43 SLP332 P0000 T00900019 $
EGUN 301255Z 04012G19KT 9999 FEW030 SCT040 BKN046 09/00 A3051 RMK AO2A SLP330 WND DATA ESTMD ALSTG/SLP ESTMD RVRNO
EGUW 301250Z 03015KT 9999 SCT030 SCT040 09/01 Q1032 RMK BLU
EGVA 301256Z AUTO 05014KT 9999 -RA BKN027 BKN038 OVC048 07/02 A3053 RMK AO2 RAB51 CIG 027V046 BKN027 V SCT SLP345 P0000 T00730024 $
EGVN 301250Z 36014KT 9999 FEW026 SCT030 08/02 Q1033 NOSIG RMK BLU BLU
EGVO 301250Z 01008KT 9999 -SHRA SCT020 BKN040 06/03 Q1033 TEMPO FEW020 BKN040 RMK WHT TEMPO BLU
EGVP 301150Z AUTO 04012KT 9999 BKN024/// SCT050/// 07/01 Q1034
EGWU 301250Z 02009KT 9999 FEW023 SCT028 BKN040 08/02 Q1033 TEMPO SCT023 RMK BLU TEMPO WHT
EGXC 301150Z 03016KT 9999 BKN025 09/01 Q1035 NOSIG RMK BLU BLU
EGXE 301150Z AUTO 02015KT 9999 BKN039/// 10/02 Q1036
EGXP 301150Z AUTO 03017KT 9999 // FEW025/// BKN043/// 07/03 Q1035
EGXS 301150Z AUTO 34018KT 9999 // FEW050/// 08/05 Q1035
EGXT 301150Z AUTO 03014KT 9999 SCT050/// 09/03 Q1034 RERA
EGXU 301150Z AUTO 02015KT 9999 SCT050/// 09/02 Q1036
EGXV 301250Z AUTO 02017KT 9999 NCD 10/03 Q1034
EGXW 301250Z 03020KT 9999 SCT036 BKN060 09/00 Q1034 NOSIG RMK BLU BLU
EGXZ 301250Z AUTO 01017KT 9999 BKN050/// 10/02 Q1036
EGYD 301150Z AUTO 02017KT 9999 // SCT025/// 08/02 Q1035
EGYM 301250Z 03014KT 9999 FEW025 BKN035 09/03 Q1033 NOSIG RMK BLU BLU
EGYP 301250Z 29017KT 9999 FEW016 SCT090 BKN180 11/06 Q1012 TEMPO 7000 SHRA SCT022TCU

About You

Log In Register UKGA membership

Airfields

Interactive airfield map Search by name Search by postcode Search by location Fuel prices Pilot reviews Latest
(No favourites selected)

Flight planning

Flight planning New flightplan NOTAM map LARS map & NOTAMs Danger area, mil. & TRA activations Weather map GPS route download Find waypoints Your waypoints New waypoint

Forums

Forums Currently discussing "Re-validations"

Other items

Articles Events Links News Surveys Tips Other users Feedback UKGA membership About UKGA